Time;durP1;ratioP1;P1;durP2;ratioP2;P2;SDS_P1;SDS_P2;PMS_P1;PMS_P2;Temp;Humidity;BMP_temperature;BMP_pressure;BME280_temperature;BME280_humidity;BME280_pressure;Samples;Min_cycle;Max_cycle;Signal;HPM_P1;HPM_P2
2023/02/01 00:00:19;;;;;;;;;;;5.10;99.90;;;;;;5094135;28;19915;-76
2023/02/01 00:02:44;;;;;;;;;;;5.20;99.90;;;;;;5095460;28;20278;-76
2023/02/01 00:05:13;;;;;;;;;;;5.20;99.90;;;;;;5094343;28;20277;-76
2023/02/01 00:07:38;;;;;;;;;;;5.10;99.90;;;;;;5095735;28;19914;-76
2023/02/01 00:10:05;;;;;;;;;;;5.20;99.90;;;;;;5094283;28;20304;-76
2023/02/01 00:12:30;;;;;;;;;;;5.10;99.90;;;;;;5094313;28;19957;-76
2023/02/01 00:14:56;;;;;;;;;;;5.20;99.90;;;;;;5095296;28;20317;-76
2023/02/01 00:17:30;;;;;;;;;;;5.20;99.90;;;;;;5095479;28;20430;-76
2023/02/01 00:19:56;;;;;;;;;;;5.30;99.90;;;;;;5094121;28;19916;-76
2023/02/01 00:22:21;;;;;;;;;;;5.30;99.90;;;;;;5095229;28;20260;-76
2023/02/01 00:24:50;;;;;;;;;;;5.80;99.90;;;;;;5095093;28;19908;-76
2023/02/01 00:27:20;;;;;;;;;;;5.00;99.90;;;;;;5094339;28;20362;-76
2023/02/01 00:29:45;;;;;;;;;;;7.20;99.90;;;;;;5094942;28;19908;-76
2023/02/01 00:32:13;;;;;;;;;;;7.40;99.90;;;;;;5094937;28;19908;-76
2023/02/01 00:34:39;;;;;;;;;;;5.30;99.90;;;;;;5094712;28;19908;-76
2023/02/01 00:37:04;;;;;;;;;;;5.40;99.90;;;;;;5093780;28;19908;-76
2023/02/01 00:39:31;;;;;;;;;;;6.00;99.90;;;;;;5094926;28;19951;-76
2023/02/01 00:41:57;;;;;;;;;;;5.60;99.90;;;;;;5093551;28;20367;-76
2023/02/01 00:44:23;;;;;;;;;;;5.70;99.90;;;;;;5093950;28;19966;-76
2023/02/01 00:46:51;;;;;;;;;;;5.80;99.90;;;;;;5093071;28;21849;-77
2023/02/01 00:49:16;;;;;;;;;;;5.80;99.90;;;;;;5095598;28;19912;-76
2023/02/01 00:51:42;;;;;;;;;;;6.00;99.90;;;;;;5094707;28;19916;-76
2023/02/01 00:54:07;;;;;;;;;;;6.00;99.90;;;;;;5093539;28;19915;-76
2023/02/01 00:56:33;;;;;;;;;;;6.20;99.90;;;;;;5094475;28;20004;-77
2023/02/01 00:58:58;;;;;;;;;;;6.30;99.90;;;;;;5094611;28;20355;-76
2023/02/01 01:01:27;;;;;;;;;;;6.30;99.90;;;;;;5094718;28;19915;-76
2023/02/01 01:03:55;;;;;;;;;;;6.30;99.90;;;;;;5092794;28;19916;-77
2023/02/01 01:06:25;;;;;;;;;;;6.40;99.90;;;;;;5094348;28;19912;-76
2023/02/01 01:08:55;;;;;;;;;;;6.40;99.90;;;;;;5093367;28;20064;-76
2023/02/01 01:11:25;;;;;;;;;;;6.40;99.90;;;;;;5094762;28;19953;-76
2023/02/01 01:13:51;;;;;;;;;;;6.40;99.90;;;;;;5093564;28;19908;-76
2023/02/01 01:16:18;;;;;;;;;;;6.40;99.90;;;;;;5094827;28;19908;-76
2023/02/01 01:18:43;;;;;;;;;;;6.30;99.90;;;;;;5093286;28;19912;-76
2023/02/01 01:21:10;;;;;;;;;;;6.30;99.90;;;;;;5094335;28;19909;-76
2023/02/01 01:23:36;;;;;;;;;;;6.30;99.90;;;;;;5095417;28;19912;-76
2023/02/01 01:26:09;;;;;;;;;;;6.30;99.90;;;;;;5094473;28;20415;-76
2023/02/01 01:28:34;;;;;;;;;;;6.30;99.90;;;;;;5093678;28;19926;-76
2023/02/01 01:31:00;;;;;;;;;;;6.30;99.90;;;;;;5093504;28;19908;-76
2023/02/01 01:33:28;;;;;;;;;;;6.30;99.90;;;;;;5093285;28;20003;-76
2023/02/01 01:35:54;;;;;;;;;;;6.40;99.90;;;;;;5093674;28;19934;-76
2023/02/01 01:38:20;;;;;;;;;;;6.40;99.90;;;;;;5094663;28;19908;-76
2023/02/01 01:40:49;;;;;;;;;;;6.40;99.90;;;;;;5096105;28;19908;-76
2023/02/01 01:43:20;;;;;;;;;;;6.50;99.90;;;;;;5096033;28;20264;-76
2023/02/01 01:45:46;;;;;;;;;;;6.50;99.90;;;;;;5095990;28;19912;-76
2023/02/01 01:48:25;;;;;;;;;;;6.50;99.90;;;;;;5096061;28;19974;-76
2023/02/01 01:50:54;;;;;;;;;;;6.60;99.90;;;;;;5095883;28;19914;-76
2023/02/01 01:53:26;;;;;;;;;;;6.50;99.90;;;;;;5097275;28;20372;-76
2023/02/01 01:55:55;;;;;;;;;;;6.50;99.90;;;;;;5095712;28;20290;-75
2023/02/01 01:58:25;;;;;;;;;;;6.50;99.90;;;;;;5096147;28;19908;-75
2023/02/01 02:00:50;;;;;;;;;;;7.20;99.90;;;;;;5095638;28;19916;-76
2023/02/01 02:03:21;;;;;;;;;;;6.50;99.90;;;;;;5095764;28;19995;-75
2023/02/01 02:05:51;;;;;;;;;;;6.50;99.90;;;;;;5096880;28;19912;-75
2023/02/01 02:08:20;;;;;;;;;;;6.50;99.90;;;;;;5095880;28;19908;-77
2023/02/01 02:11:00;;;;;;;;;;;6.90;99.90;;;;;;5096867;28;19915;-75
2023/02/01 02:13:38;;;;;;;;;;;6.60;99.90;;;;;;5095726;28;19985;-75
2023/02/01 02:16:08;;;;;;;;;;;6.70;99.90;;;;;;5095610;28;19912;-75
2023/02/01 02:18:49;;;;;;;;;;;6.60;99.90;;;;;;5102226;22;19923;-75
2023/02/01 02:21:18;;;;;;;;;;;6.70;99.90;;;;;;5036587;28;20344;-75
2023/02/01 02:23:47;;;;;;;;;;;6.80;99.90;;;;;;5035299;28;19910;-75
2023/02/01 02:26:18;;;;;;;;;;;6.80;99.90;;;;;;5036397;28;20383;-76
2023/02/01 02:28:43;;;;;;;;;;;6.90;99.90;;;;;;5035211;28;19909;-76
2023/02/01 02:31:21;;;;;;;;;;;6.90;99.90;;;;;;5036334;28;19916;-76
2023/02/01 02:33:52;;;;;;;;;;;6.90;99.90;;;;;;5036389;28;19909;-76
2023/02/01 02:36:18;;;;;;;;;;;6.90;99.90;;;;;;5036201;28;19909;-76
2023/02/01 02:38:50;;;;;;;;;;;6.90;99.90;;;;;;5034846;28;19956;-76
2023/02/01 02:47:25;;;;;;;;;;;6.90;99.90;;;;;;5036922;28;20379;-76
2023/02/01 03:04:17;;;;;;;;;;;7.10;99.90;;;;;;5035719;28;19916;-76
2023/02/01 03:06:43;;;;;;;;;;;7.00;99.90;;;;;;5034473;28;19913;-75
2023/02/01 03:09:13;;;;;;;;;;;7.00;99.90;;;;;;5035593;28;19909;-75
2023/02/01 03:14:25;;;;;;;;;;;6.90;99.90;;;;;;5036497;28;19916;-76
2023/02/01 03:16:51;;;;;;;;;;;6.90;99.90;;;;;;5051141;28;20004;-75
2023/02/01 03:19:29;;;;;;;;;;;6.90;99.90;;;;;;5035521;28;19940;-75
2023/02/01 03:21:59;;;;;;;;;;;6.90;99.90;;;;;;5034514;28;20356;-75
2023/02/01 03:24:34;;;;;;;;;;;6.80;99.90;;;;;;5035617;28;19939;-76
2023/02/01 03:27:06;;;;;;;;;;;6.70;99.90;;;;;;5035411;28;19983;-75
2023/02/01 03:29:44;;;;;;;;;;;6.70;99.90;;;;;;5035475;28;20041;-75
2023/02/01 03:32:10;;;;;;;;;;;6.70;99.90;;;;;;5035691;28;19988;-76
2023/02/01 03:34:36;;;;;;;;;;;6.70;99.90;;;;;;5035297;28;20325;-76
2023/02/01 03:37:04;;;;;;;;;;;6.60;99.90;;;;;;5033924;28;20052;-75
2023/02/01 03:39:35;;;;;;;;;;;6.60;99.90;;;;;;5050805;28;20356;-76
2023/02/01 03:42:09;;;;;;;;;;;6.60;99.90;;;;;;5034065;28;20024;-76
2023/02/01 03:44:38;;;;;;;;;;;6.50;99.90;;;;;;5035208;28;20288;-76
2023/02/01 03:47:10;;;;;;;;;;;6.50;99.90;;;;;;5050228;28;20292;-75
2023/02/01 03:49:38;;;;;;;;;;;6.50;99.90;;;;;;5033655;28;20269;-76
2023/02/01 03:52:05;;;;;;;;;;;6.50;99.90;;;;;;5034881;28;19909;-76
2023/02/01 03:54:32;;;;;;;;;;;6.50;99.90;;;;;;5033464;28;19944;-76
2023/02/01 03:57:02;;;;;;;;;;;6.60;99.90;;;;;;5034997;28;19970;-76
2023/02/01 03:59:28;;;;;;;;;;;6.60;99.90;;;;;;5034653;28;20371;-76
2023/02/01 04:01:56;;;;;;;;;;;6.60;99.90;;;;;;5033909;28;19913;-76
2023/02/01 04:04:22;;;;;;;;;;;6.70;99.90;;;;;;5034925;28;19945;-76
2023/02/01 04:06:49;;;;;;;;;;;6.70;99.90;;;;;;5034666;28;20410;-76
2023/02/01 04:09:17;;;;;;;;;;;6.70;99.90;;;;;;5034678;28;19948;-76
2023/02/01 04:11:43;;;;;;;;;;;6.80;99.90;;;;;;5034615;28;20060;-76
2023/02/01 04:14:08;;;;;;;;;;;6.80;99.90;;;;;;5034487;28;20024;-76
2023/02/01 04:16:37;;;;;;;;;;;6.80;99.90;;;;;;5033169;28;20418;-76
2023/02/01 04:19:02;;;;;;;;;;;6.80;99.90;;;;;;5049698;28;19917;-76
2023/02/01 04:21:28;;;;;;;;;;;6.80;99.90;;;;;;5034202;28;19932;-76
2023/02/01 04:23:54;;;;;;;;;;;6.80;99.90;;;;;;5034875;28;19910;-76
2023/02/01 04:26:21;;;;;;;;;;;6.80;99.90;;;;;;5034651;28;19917;-77
2023/02/01 04:28:47;;;;;;;;;;;6.80;99.90;;;;;;5032829;28;20256;-76
2023/02/01 04:31:17;;;;;;;;;;;6.80;99.90;;;;;;5049519;28;19935;-76
2023/02/01 04:33:42;;;;;;;;;;;6.80;99.90;;;;;;5049382;28;19913;-76
2023/02/01 04:36:08;;;;;;;;;;;7.20;99.90;;;;;;5034288;28;19996;-75
2023/02/01 04:38:33;;;;;;;;;;;6.90;99.90;;;;;;5050121;28;20017;-76
2023/02/01 04:41:00;;;;;;;;;;;6.90;99.90;;;;;;5033496;28;20011;-76
2023/02/01 04:43:25;;;;;;;;;;;6.80;99.90;;;;;;5049971;28;19919;-76
2023/02/01 04:45:51;;;;;;;;;;;6.80;99.90;;;;;;5034445;28;19919;-76
2023/02/01 04:48:17;;;;;;;;;;;6.70;99.90;;;;;;5034590;28;20268;-75
2023/02/01 04:50:44;;;;;;;;;;;6.70;99.90;;;;;;5034171;28;19909;-76
2023/02/01 04:53:10;;;;;;;;;;;6.60;99.90;;;;;;5049645;28;19909;-76
2023/02/01 04:55:35;;;;;;;;;;;6.50;99.90;;;;;;5034801;28;19916;-75
2023/02/01 04:58:01;;;;;;;;;;;6.50;99.90;;;;;;5034052;28;20364;-75
2023/02/01 05:00:26;;;;;;;;;;;6.50;99.90;;;;;;5034067;28;19931;-75
2023/02/01 05:02:52;;;;;;;;;;;6.40;99.90;;;;;;5034363;28;19913;-75
2023/02/01 05:05:17;;;;;;;;;;;6.50;99.90;;;;;;5032926;28;19917;-75
2023/02/01 05:07:43;;;;;;;;;;;6.60;99.90;;;;;;5034405;28;19947;-75
2023/02/01 05:10:08;;;;;;;;;;;6.40;99.90;;;;;;5034372;28;19909;-75
2023/02/01 05:15:18;;;;;;;;;;;6.40;99.90;;;;;;5038808;28;19963;-75
2023/02/01 05:17:44;;;;;;;;;;;6.40;99.90;;;;;;5038472;28;20007;-76
2023/02/01 05:20:09;;;;;;;;;;;6.30;99.90;;;;;;5038030;28;19917;-76
2023/02/01 05:22:35;;;;;;;;;;;6.40;99.90;;;;;;5036477;28;19939;-75
2023/02/01 05:25:00;;;;;;;;;;;6.40;99.90;;;;;;5038177;28;19917;-75
2023/02/01 05:27:28;;;;;;;;;;;6.40;99.90;;;;;;5038226;28;20047;-75
2023/02/01 05:29:53;;;;;;;;;;;6.40;99.90;;;;;;5038102;28;19964;-75
2023/02/01 05:32:19;;;;;;;;;;;6.30;99.90;;;;;;5053323;28;20001;-75
2023/02/01 05:34:44;;;;;;;;;;;6.40;99.90;;;;;;5038097;28;19920;-75
2023/02/01 05:37:10;;;;;;;;;;;6.40;99.90;;;;;;5053508;28;19916;-75
2023/02/01 05:39:35;;;;;;;;;;;6.40;99.90;;;;;;5037982;28;20352;-76
2023/02/01 05:42:01;;;;;;;;;;;6.40;99.90;;;;;;5037802;28;19932;-75
2023/02/01 05:44:26;;;;;;;;;;;6.40;99.90;;;;;;5053617;28;19913;-76
2023/02/01 05:46:52;;;;;;;;;;;6.40;99.90;;;;;;5036370;28;19959;-76
2023/02/01 05:49:17;;;;;;;;;;;6.50;99.90;;;;;;5038414;28;19909;-76
2023/02/01 05:51:43;;;;;;;;;;;6.40;99.90;;;;;;5035797;28;19916;-76
2023/02/01 05:54:08;;;;;;;;;;;6.50;99.90;;;;;;5036230;28;19916;-75
2023/02/01 05:56:34;;;;;;;;;;;6.70;99.90;;;;;;5053025;28;19909;-76
2023/02/01 05:58:59;;;;;;;;;;;6.50;99.90;;;;;;5037446;28;19945;-76
2023/02/01 06:01:25;;;;;;;;;;;6.50;99.90;;;;;;5037225;28;19913;-77
2023/02/01 06:03:50;;;;;;;;;;;6.50;99.90;;;;;;5036861;28;19943;-77
2023/02/01 06:06:15;;;;;;;;;;;6.40;99.90;;;;;;5037457;28;19978;-76
2023/02/01 06:08:41;;;;;;;;;;;6.40;99.90;;;;;;5036821;28;19909;-76
2023/02/01 06:11:06;;;;;;;;;;;6.60;99.90;;;;;;5052148;28;19909;-76
2023/02/01 06:13:32;;;;;;;;;;;6.40;99.90;;;;;;5037103;28;20367;-75
2023/02/01 06:15:58;;;;;;;;;;;6.40;99.90;;;;;;5035386;28;19976;-76
2023/02/01 06:18:24;;;;;;;;;;;6.40;99.90;;;;;;5051956;28;19958;-76
2023/02/01 06:20:54;;;;;;;;;;;6.30;99.90;;;;;;5036437;28;19959;-75
2023/02/01 06:23:19;;;;;;;;;;;6.30;99.90;;;;;;5036443;28;19909;-76
2023/02/01 06:25:45;;;;;;;;;;;6.30;99.90;;;;;;5034166;28;19917;-76
2023/02/01 06:28:10;;;;;;;;;;;7.40;99.90;;;;;;5036443;28;20291;-76
2023/02/01 06:30:35;;;;;;;;;;;6.20;99.90;;;;;;5052257;28;19916;-76
2023/02/01 06:33:01;;;;;;;;;;;6.20;99.90;;;;;;5036255;28;19912;-75
2023/02/01 06:35:26;;;;;;;;;;;6.20;99.90;;;;;;5036396;28;19916;-75
2023/02/01 06:37:52;;;;;;;;;;;6.30;99.90;;;;;;5051603;28;20283;-76
2023/02/01 06:40:18;;;;;;;;;;;6.30;99.90;;;;;;5034910;28;19977;-75
2023/02/01 06:42:43;;;;;;;;;;;6.20;99.90;;;;;;5036196;28;19909;-76
2023/02/01 06:45:09;;;;;;;;;;;6.20;99.90;;;;;;5036119;28;19952;-76
2023/02/01 06:47:34;;;;;;;;;;;6.20;99.90;;;;;;5036149;28;20329;-76
2023/02/01 06:50:00;;;;;;;;;;;6.20;99.90;;;;;;5051516;28;19909;-76
2023/02/01 06:52:25;;;;;;;;;;;6.30;99.90;;;;;;5036373;28;19968;-75
2023/02/01 06:54:51;;;;;;;;;;;6.30;99.90;;;;;;5051205;28;19959;-76
2023/02/01 06:57:16;;;;;;;;;;;6.40;99.90;;;;;;5051217;28;19916;-76
2023/02/01 06:59:41;;;;;;;;;;;6.30;99.90;;;;;;5036286;28;19909;-76
2023/02/01 07:02:13;;;;;;;;;;;6.40;99.90;;;;;;5035785;28;20321;-75
2023/02/01 07:04:38;;;;;;;;;;;6.40;99.90;;;;;;5035735;28;19909;-75
2023/02/01 07:07:04;;;;;;;;;;;6.40;99.90;;;;;;5050922;28;19913;-75
2023/02/01 07:09:29;;;;;;;;;;;6.40;99.90;;;;;;5035750;28;19916;-75
2023/02/01 07:11:55;;;;;;;;;;;6.40;99.90;;;;;;5035967;28;19913;-75
2023/02/01 07:14:20;;;;;;;;;;;6.40;99.90;;;;;;5035842;28;19916;-74
2023/02/01 07:16:46;;;;;;;;;;;6.50;99.90;;;;;;5035522;28;20288;-75
2023/02/01 07:19:11;;;;;;;;;;;6.50;99.90;;;;;;5035545;28;19917;-75
2023/02/01 07:21:37;;;;;;;;;;;6.50;99.90;;;;;;5035287;28;19917;-75
2023/02/01 07:24:02;;;;;;;;;;;6.50;99.90;;;;;;5035334;28;20326;-74
2023/02/01 07:26:28;;;;;;;;;;;6.50;99.90;;;;;;5035213;28;19913;-74
2023/02/01 07:28:53;;;;;;;;;;;6.50;99.90;;;;;;5050712;28;19917;-75
2023/02/01 07:31:21;;;;;;;;;;;6.50;99.90;;;;;;5035292;28;20294;-74
2023/02/01 07:33:47;;;;;;;;;;;7.40;99.90;;;;;;5050654;28;19940;-75
2023/02/01 07:36:13;;;;;;;;;;;6.50;99.90;;;;;;5035204;28;19955;-76
2023/02/01 07:38:39;;;;;;;;;;;6.50;99.90;;;;;;5035153;28;19910;-74
2023/02/01 07:41:05;;;;;;;;;;;6.50;99.90;;;;;;5033670;28;19913;-75
2023/02/01 07:43:31;;;;;;;;;;;6.50;99.90;;;;;;5035098;28;19909;-75
2023/02/01 07:45:57;;;;;;;;;;;6.50;99.90;;;;;;5034759;28;20055;-75
2023/02/01 07:48:23;;;;;;;;;;;6.50;99.90;;;;;;5035022;28;19971;-75
2023/02/01 07:50:56;;;;;;;;;;;6.50;99.90;;;;;;5034882;28;19910;-74
2023/02/01 07:53:21;;;;;;;;;;;6.40;99.90;;;;;;5033534;28;19909;-75
2023/02/01 07:55:47;;;;;;;;;;;6.50;99.90;;;;;;5050212;28;20260;-75
2023/02/01 07:58:13;;;;;;;;;;;6.40;99.90;;;;;;5034907;28;20375;-74
2023/02/01 08:03:22;;;;;;;;;;;6.50;99.90;;;;;;5035646;28;20326;-75
2023/02/01 08:05:48;;;;;;;;;;;6.50;99.90;;;;;;5035178;28;19913;-75
2023/02/01 08:08:13;;;;;;;;;;;6.50;99.90;;;;;;5033951;28;20447;-75
2023/02/01 08:10:39;;;;;;;;;;;6.50;99.90;;;;;;5035358;28;20272;-76
2023/02/01 08:13:04;;;;;;;;;;;6.40;99.90;;;;;;5035933;28;19913;-76
2023/02/01 08:15:30;;;;;;;;;;;6.50;99.90;;;;;;5033928;28;20015;-75
2023/02/01 08:17:55;;;;;;;;;;;6.50;99.90;;;;;;5050231;28;19909;-76
2023/02/01 08:20:22;;;;;;;;;;;6.40;99.90;;;;;;5050141;28;19980;-75
2023/02/01 08:22:48;;;;;;;;;;;6.50;99.90;;;;;;5034935;28;19909;-75
2023/02/01 08:25:14;;;;;;;;;;;6.50;99.90;;;;;;5032949;28;20326;-75
2023/02/01 08:27:39;;;;;;;;;;;6.50;99.90;;;;;;5034727;28;19917;-76
2023/02/01 08:30:06;;;;;;;;;;;6.50;99.90;;;;;;5033614;28;19909;-75
2023/02/01 08:32:32;;;;;;;;;;;6.50;99.90;;;;;;5034770;28;19909;-76
2023/02/01 08:34:58;;;;;;;;;;;6.50;99.90;;;;;;5034791;28;20261;-75
2023/02/01 08:37:23;;;;;;;;;;;6.60;99.90;;;;;;5035048;28;19916;-75
2023/02/01 08:39:50;;;;;;;;;;;6.60;99.90;;;;;;5034341;28;19910;-76
2023/02/01 08:45:01;;;;;;;;;;;6.80;99.90;;;;;;5034984;28;19935;-76
2023/02/01 08:47:26;;;;;;;;;;;6.90;99.90;;;;;;5033077;28;19909;-75
2023/02/01 08:49:53;;;;;;;;;;;6.90;99.90;;;;;;5050564;28;19917;-75
2023/02/01 08:52:18;;;;;;;;;;;7.00;99.90;;;;;;5035345;28;19909;-75
2023/02/01 08:54:44;;;;;;;;;;;7.00;99.90;;;;;;5034828;28;20001;-75
2023/02/01 08:57:09;;;;;;;;;;;7.10;99.90;;;;;;5034337;28;19909;-75
2023/02/01 08:59:35;;;;;;;;;;;7.20;99.90;;;;;;5033670;28;19913;-75
2023/02/01 09:02:01;;;;;;;;;;;7.30;99.90;;;;;;5049048;28;19917;-74
2023/02/01 09:04:26;;;;;;;;;;;7.30;99.90;;;;;;5033744;28;19909;-76
2023/02/01 09:06:52;;;;;;;;;;;7.40;99.90;;;;;;5049030;28;19920;-74
2023/02/01 09:09:17;;;;;;;;;;;7.40;99.90;;;;;;5032497;28;19948;-74
2023/02/01 09:11:43;;;;;;;;;;;7.50;99.90;;;;;;5033618;28;19909;-74
2023/02/01 09:14:08;;;;;;;;;;;8.20;99.90;;;;;;5033577;28;19909;-74
2023/02/01 09:16:34;;;;;;;;;;;7.60;99.90;;;;;;5033574;28;20428;-74
2023/02/01 09:18:59;;;;;;;;;;;7.70;99.90;;;;;;5048786;28;19964;-75
2023/02/01 09:21:24;;;;;;;;;;;7.80;99.90;;;;;;5033736;28;19928;-74
2023/02/01 09:23:50;;;;;;;;;;;7.90;99.90;;;;;;5048763;28;20360;-74
2023/02/01 09:26:16;;;;;;;;;;;8.00;99.90;;;;;;5033432;28;19920;-75
2023/02/01 09:28:41;;;;;;;;;;;8.00;99.90;;;;;;5048878;28;20296;-74
2023/02/01 09:31:07;;;;;;;;;;;8.00;99.90;;;;;;5033392;28;19909;-74
2023/02/01 09:33:32;;;;;;;;;;;8.00;99.90;;;;;;5048769;28;19917;-75
2023/02/01 09:35:59;;;;;;;;;;;7.90;99.90;;;;;;5033432;28;20415;-74
2023/02/01 09:38:28;;;;;;;;;;;7.90;99.90;;;;;;5032220;28;19919;-74
2023/02/01 09:40:55;;;;;;;;;;;7.80;99.90;;;;;;5048560;28;19910;-74
2023/02/01 09:43:24;;;;;;;;;;;8.40;99.90;;;;;;5033438;28;19913;-74
2023/02/01 09:45:56;;;;;;;;;;;7.80;99.90;;;;;;5032045;28;19913;-74
2023/02/01 09:48:27;;;;;;;;;;;7.90;99.90;;;;;;5033278;28;19959;-74
2023/02/01 09:50:55;;;;;;;;;;;7.90;99.90;;;;;;5034013;28;19910;-74
2023/02/01 09:53:27;;;;;;;;;;;7.90;99.90;;;;;;5033889;28;19909;-74
2023/02/01 09:55:55;;;;;;;;;;;7.80;99.90;;;;;;5033393;28;20000;-75
2023/02/01 09:58:35;;;;;;;;;;;7.70;99.90;;;;;;5033214;28;19963;-74
2023/02/01 10:01:01;;;;;;;;;;;7.70;99.90;;;;;;5036809;28;20340;-74
2023/02/01 10:03:28;;;;;;;;;;;7.70;99.90;;;;;;5037181;28;20006;-74
2023/02/01 10:06:09;;;;;;;;;;;7.70;99.90;;;;;;5036876;28;20455;-74
2023/02/01 10:09:02;;;;;;;;;;;7.60;99.90;;;;;;5037413;28;19988;-75
2023/02/01 10:11:47;;;;;;;;;;;7.60;99.90;;;;;;5036648;28;20260;-75
2023/02/01 10:14:25;;;;;;;;;;;7.60;99.90;;;;;;5035472;28;19945;-75
2023/02/01 10:16:51;;;;;;;;;;;7.50;99.90;;;;;;5035419;28;20422;-74
2023/02/01 10:19:39;;;;;;;;;;;7.50;99.90;;;;;;5037151;28;19917;-76
2023/02/01 10:22:09;;;;;;;;;;;7.40;99.90;;;;;;5032300;28;19909;-75
2023/02/01 10:24:42;;;;;;;;;;;7.30;99.90;;;;;;5036344;28;19916;-74
2023/02/01 10:27:10;;;;;;;;;;;7.30;99.90;;;;;;5035083;28;19967;-75
2023/02/01 10:29:38;;;;;;;;;;;7.20;99.90;;;;;;5035137;28;19909;-75
2023/02/01 10:32:09;;;;;;;;;;;7.20;99.90;;;;;;5036285;28;19909;-75
2023/02/01 10:34:36;;;;;;;;;;;7.30;99.90;;;;;;5035056;28;19959;-75
2023/02/01 10:37:11;;;;;;;;;;;7.30;99.90;;;;;;5051521;28;19916;-75
2023/02/01 10:39:36;;;;;;;;;;;7.30;99.90;;;;;;5036501;28;19916;-75
2023/02/01 10:42:02;;;;;;;;;;;7.30;99.90;;;;;;5051297;28;19913;-75
2023/02/01 10:44:29;;;;;;;;;;;7.40;99.90;;;;;;5036015;28;20422;-75
2023/02/01 10:46:55;;;;;;;;;;;7.40;99.90;;;;;;5035950;28;20011;-74
2023/02/01 10:49:24;;;;;;;;;;;7.40;99.90;;;;;;5036011;28;19991;-76
2023/02/01 10:51:55;;;;;;;;;;;7.50;99.90;;;;;;5036872;28;19913;-77
2023/02/01 10:54:31;;;;;;;;;;;7.50;99.90;;;;;;5036657;28;19932;-76
2023/02/01 10:56:56;;;;;;;;;;;7.60;99.90;;;;;;5036085;28;20004;-77
2023/02/01 10:59:24;;;;;;;;;;;7.80;99.90;;;;;;5035844;28;20376;-77
2023/02/01 11:01:50;;;;;;;;;;;8.00;99.90;;;;;;5035952;28;20290;-76
2023/02/01 11:04:22;;;;;;;;;;;7.80;99.90;;;;;;5034848;28;19917;-76
2023/02/01 11:06:50;;;;;;;;;;;7.80;99.90;;;;;;5035666;28;19967;-77
2023/02/01 11:09:20;;;;;;;;;;;7.80;99.90;;;;;;5034361;28;19909;-77
2023/02/01 11:11:45;;;;;;;;;;;7.80;99.90;;;;;;5034963;28;19913;-77
2023/02/01 11:14:14;;;;;;;;;;;7.80;99.90;;;;;;5035538;28;19909;-76
2023/02/01 11:16:39;;;;;;;;;;;7.80;99.90;;;;;;5034584;28;19909;-76
2023/02/01 11:19:05;;;;;;;;;;;7.70;99.90;;;;;;5035248;28;20411;-76
2023/02/01 11:21:30;;;;;;;;;;;7.60;99.90;;;;;;5050768;28;20364;-76
2023/02/01 11:24:00;;;;;;;;;;;7.60;99.90;;;;;;5050650;28;19960;-76
2023/02/01 11:26:27;;;;;;;;;;;7.50;99.90;;;;;;5033968;28;19916;-76
2023/02/01 11:28:58;;;;;;;;;;;7.70;99.90;;;;;;5050490;28;20292;-76
2023/02/01 11:31:24;;;;;;;;;;;7.80;99.90;;;;;;5035093;28;20426;-76
2023/02/01 11:33:54;;;;;;;;;;;7.80;99.90;;;;;;5035073;28;20000;-76
2023/02/01 11:36:26;;;;;;;;;;;7.90;99.90;;;;;;5035674;28;19952;-76
2023/02/01 11:38:53;;;;;;;;;;;8.00;99.90;;;;;;5033960;28;20021;-76
2023/02/01 11:41:26;;;;;;;;;;;8.00;99.90;;;;;;5033713;28;19959;-76
2023/02/01 11:43:52;;;;;;;;;;;8.00;99.90;;;;;;5033646;28;19916;-76
2023/02/01 11:46:24;;;;;;;;;;;8.10;99.90;;;;;;5033560;28;19913;-76
2023/02/01 11:48:50;;;;;;;;;;;8.20;99.90;;;;;;5050295;28;19913;-76
2023/02/01 11:51:17;;;;;;;;;;;8.20;99.90;;;;;;5033488;28;19913;-77
2023/02/01 11:53:52;;;;;;;;;;;8.20;99.90;;;;;;5034782;28;20291;-77
2023/02/01 11:56:17;;;;;;;;;;;8.20;99.90;;;;;;5034761;28;19909;-76
2023/02/01 11:58:51;;;;;;;;;;;8.30;99.90;;;;;;5033441;28;19915;-77
2023/02/01 12:01:20;;;;;;;;;;;8.30;99.90;;;;;;5050135;28;19910;-77
2023/02/01 12:03:51;;;;;;;;;;;8.30;99.90;;;;;;5033745;28;19916;-76
2023/02/01 12:06:23;;;;;;;;;;;8.20;99.90;;;;;;5034582;28;20376;-77
2023/02/01 12:08:48;;;;;;;;;;;8.30;99.90;;;;;;5035138;28;19975;-76
2023/02/01 12:11:20;;;;;;;;;;;8.40;99.90;;;;;;5034534;28;20360;-77
2023/02/01 12:13:45;;;;;;;;;;;8.40;99.90;;;;;;5035052;28;20015;-77
2023/02/01 12:16:29;;;;;;;;;;;8.50;99.90;;;;;;5034728;28;19994;-77
2023/02/01 12:19:09;;;;;;;;;;;8.50;99.90;;;;;;5034959;28;20004;-76
2023/02/01 12:21:47;;;;;;;;;;;8.50;99.90;;;;;;5034305;28;19939;-77
2023/02/01 12:24:31;;;;;;;;;;;8.50;99.90;;;;;;5032399;28;20269;-76
2023/02/01 12:27:02;;;;;;;;;;;8.50;99.90;;;;;;5035173;28;19913;-77
2023/02/01 12:29:46;;;;;;;;;;;8.40;99.90;;;;;;5034453;28;19916;-76
2023/02/01 12:32:30;;;;;;;;;;;8.40;99.90;;;;;;5033308;28;19944;-76
2023/02/01 12:35:04;;;;;;;;;;;8.40;99.90;;;;;;5034866;28;19916;-77
2023/02/01 12:38:02;;;;;;;;;;;8.30;99.90;;;;;;5035053;28;20303;-77
2023/02/01 12:40:27;;;;;;;;;;;8.30;99.90;;;;;;5032913;28;19944;-77
2023/02/01 12:43:01;;;;;;;;;;;8.20;99.90;;;;;;5032932;28;19916;-76
2023/02/01 12:45:36;;;;;;;;;;;8.30;99.90;;;;;;5034450;28;19919;-77
2023/02/01 12:48:22;;;;;;;;;;;8.30;99.90;;;;;;5034160;28;19959;-77
2023/02/01 12:50:50;;;;;;;;;;;8.40;99.90;;;;;;5034216;28;19948;-76
2023/02/01 12:53:23;;;;;;;;;;;8.50;99.90;;;;;;5034203;28;20004;-77
2023/02/01 12:55:51;;;;;;;;;;;8.50;99.90;;;;;;5032687;28;19909;-76
2023/02/01 12:58:20;;;;;;;;;;;8.60;99.90;;;;;;5033301;28;19916;-76
2023/02/01 13:00:48;;;;;;;;;;;8.60;99.90;;;;;;5032882;28;19920;-76
2023/02/01 13:03:26;;;;;;;;;;;8.60;99.90;;;;;;5032529;28;20007;-76
2023/02/01 13:05:55;;;;;;;;;;;8.50;99.90;;;;;;5032348;28;20428;-77
2023/02/01 13:08:25;;;;;;;;;;;8.50;99.90;;;;;;5032720;28;20443;-77
2023/02/01 13:10:56;;;;;;;;;;;8.40;99.90;;;;;;5032632;28;20391;-76
2023/02/01 13:13:33;;;;;;;;;;;9.20;99.90;;;;;;5033851;28;20013;-76
2023/02/01 13:16:02;;;;;;;;;;;8.40;99.90;;;;;;5032696;28;19913;-76
2023/02/01 13:18:35;;;;;;;;;;;8.40;99.90;;;;;;5033722;28;20020;-77
2023/02/01 13:21:10;;;;;;;;;;;8.40;99.90;;;;;;5034065;28;19913;-76
2023/02/01 13:23:41;;;;;;;;;;;8.40;99.90;;;;;;5032636;28;20008;-76
2023/02/01 13:26:07;;;;;;;;;;;8.40;99.90;;;;;;5033682;28;20387;-76
2023/02/01 13:28:39;;;;;;;;;;;8.40;99.90;;;;;;5033791;28;19909;-76
2023/02/01 13:31:07;;;;;;;;;;;8.30;99.90;;;;;;5033517;28;19909;-76
2023/02/01 13:33:33;;;;;;;;;;;8.30;99.90;;;;;;5033932;28;19909;-76
2023/02/01 13:36:15;;;;;;;;;;;8.40;99.90;;;;;;5036729;28;19932;-76
2023/02/01 13:38:59;;;;;;;;;;;8.30;99.90;;;;;;5037737;28;20000;-76
2023/02/01 13:41:26;;;;;;;;;;;8.40;99.90;;;;;;5036645;28;20000;-76
2023/02/01 13:43:54;;;;;;;;;;;8.40;99.90;;;;;;5038025;28;19910;-76
2023/02/01 13:46:19;;;;;;;;;;;8.40;99.90;;;;;;5052826;28;19920;-76
2023/02/01 13:48:47;;;;;;;;;;;8.50;99.90;;;;;;5052530;28;19913;-76
2023/02/01 13:51:13;;;;;;;;;;;9.00;99.90;;;;;;5037070;28;20376;-76
2023/02/01 13:53:44;;;;;;;;;;;8.50;99.90;;;;;;5037045;28;19956;-76
2023/02/01 13:56:09;;;;;;;;;;;8.50;99.90;;;;;;5037583;28;19909;-76
2023/02/01 13:58:36;;;;;;;;;;;8.80;99.90;;;;;;5037014;28;19913;-76
2023/02/01 14:01:20;;;;;;;;;;;8.80;99.90;;;;;;5036867;28;19995;-76
2023/02/01 14:03:50;;;;;;;;;;;8.60;99.90;;;;;;5035943;28;19971;-76
2023/02/01 14:06:29;;;;;;;;;;;8.60;99.90;;;;;;5035390;28;19917;-77
2023/02/01 14:09:10;;;;;;;;;;;8.50;99.90;;;;;;5036767;28;19939;-76
2023/02/01 14:11:36;;;;;;;;;;;8.50;99.90;;;;;;5036887;28;19913;-76
2023/02/01 14:14:16;;;;;;;;;;;8.40;99.90;;;;;;5035505;28;19910;-76
2023/02/01 14:16:42;;;;;;;;;;;8.50;99.90;;;;;;5036666;28;19909;-76
2023/02/01 14:19:09;;;;;;;;;;;8.50;99.90;;;;;;5052395;23;19962;-76
2023/02/01 14:21:45;;;;;;;;;;;8.50;99.90;;;;;;5075346;28;19952;-76
2023/02/01 14:24:11;;;;;;;;;;;8.50;99.90;;;;;;5076483;28;19995;-76
2023/02/01 14:26:44;;;;;;;;;;;8.50;99.90;;;;;;5076299;28;20019;-76
2023/02/01 14:29:16;;;;;;;;;;;8.50;99.90;;;;;;5076427;28;19915;-76
2023/02/01 14:32:02;;;;;;;;;;;8.50;99.90;;;;;;5077084;28;19915;-76
2023/02/01 14:34:27;;;;;;;;;;;8.40;99.90;;;;;;5076231;28;20309;-76
2023/02/01 14:36:56;;;;;;;;;;;8.40;99.90;;;;;;5076154;28;19912;-76
2023/02/01 14:39:24;;;;;;;;;;;8.40;99.90;;;;;;5076221;28;19912;-77
2023/02/01 14:41:52;;;;;;;;;;;8.30;99.90;;;;;;5076016;28;19909;-76
2023/02/01 14:44:28;;;;;;;;;;;8.40;99.90;;;;;;5078417;28;19909;-78
2023/02/01 14:47:11;;;;;;;;;;;8.40;99.90;;;;;;5075957;28;20003;-78
2023/02/01 14:49:47;;;;;;;;;;;8.40;99.90;;;;;;5076489;28;19913;-76
2023/02/01 14:52:14;;;;;;;;;;;8.30;99.90;;;;;;5074829;28;19908;-76
2023/02/01 14:54:39;;;;;;;;;;;8.30;99.90;;;;;;5076000;28;19908;-76
2023/02/01 14:57:05;;;;;;;;;;;8.30;99.90;;;;;;5075763;28;19909;-76
2023/02/01 14:59:33;;;;;;;;;;;9.10;99.90;;;;;;5075751;28;20382;-76
2023/02/01 15:02:00;;;;;;;;;;;8.30;99.90;;;;;;5074659;28;19908;-76
2023/02/01 15:04:26;;;;;;;;;;;8.30;99.90;;;;;;5074490;28;19955;-76
2023/02/01 15:07:01;;;;;;;;;;;8.30;99.90;;;;;;5075592;28;19912;-76
2023/02/01 15:09:44;;;;;;;;;;;8.30;99.90;;;;;;5074376;28;19941;-76